sensor_id;sensor_type;location;lat;lon;timestamp;P1;durP1;ratioP1;P2;durP2;ratioP2
54935;SDS011;40838;50.676;7.838;2024-02-28T00:02:18;239.10;;;48.47;;
54935;SDS011;40838;50.676;7.838;2024-02-28T00:04:46;274.38;;;50.33;;
54935;SDS011;40838;50.676;7.838;2024-02-28T00:07:14;220.95;;;48.10;;
54935;SDS011;40838;50.676;7.838;2024-02-28T00:09:42;163.93;;;44.25;;
54935;SDS011;40838;50.676;7.838;2024-02-28T00:12:10;464.08;;;64.15;;
54935;SDS011;40838;50.676;7.838;2024-02-28T00:14:37;264.50;;;47.13;;
54935;SDS011;40838;50.676;7.838;2024-02-28T00:17:06;208.35;;;46.75;;
54935;SDS011;40838;50.676;7.838;2024-02-28T00:19:33;255.60;;;49.58;;
54935;SDS011;40838;50.676;7.838;2024-02-28T00:22:00;275.13;;;49.22;;
54935;SDS011;40838;50.676;7.838;2024-02-28T00:24:27;279.50;;;51.60;;
54935;SDS011;40838;50.676;7.838;2024-02-28T00:26:55;205.35;;;46.20;;
54935;SDS011;40838;50.676;7.838;2024-02-28T00:29:22;262.08;;;48.28;;
54935;SDS011;40838;50.676;7.838;2024-02-28T00:31:49;242.23;;;48.80;;
54935;SDS011;40838;50.676;7.838;2024-02-28T00:34:18;443.40;;;59.70;;
54935;SDS011;40838;50.676;7.838;2024-02-28T00:36:45;275.50;;;47.75;;
54935;SDS011;40838;50.676;7.838;2024-02-28T00:39:12;237.93;;;43.53;;
54935;SDS011;40838;50.676;7.838;2024-02-28T00:41:39;205.85;;;41.35;;
54935;SDS011;40838;50.676;7.838;2024-02-28T00:44:06;284.60;;;47.50;;
54935;SDS011;40838;50.676;7.838;2024-02-28T00:46:33;286.55;;;45.40;;
54935;SDS011;40838;50.676;7.838;2024-02-28T00:49:00;441.35;;;53.80;;
54935;SDS011;40838;50.676;7.838;2024-02-28T00:51:28;231.13;;;40.88;;
54935;SDS011;40838;50.676;7.838;2024-02-28T00:53:55;127.38;;;38.80;;
54935;SDS011;40838;50.676;7.838;2024-02-28T00:56:23;373.90;;;50.25;;
54935;SDS011;40838;50.676;7.838;2024-02-28T00:58:52;301.27;;;43.67;;
54935;SDS011;40838;50.676;7.838;2024-02-28T01:01:19;220.50;;;43.92;;
54935;SDS011;40838;50.676;7.838;2024-02-28T01:03:46;240.07;;;43.13;;
54935;SDS011;40838;50.676;7.838;2024-02-28T01:06:13;229.32;;;44.28;;
54935;SDS011;40838;50.676;7.838;2024-02-28T01:08:42;171.77;;;40.95;;
54935;SDS011;40838;50.676;7.838;2024-02-28T01:11:10;229.02;;;42.35;;
54935;SDS011;40838;50.676;7.838;2024-02-28T01:13:37;228.38;;;40.95;;
54935;SDS011;40838;50.676;7.838;2024-02-28T01:16:04;220.75;;;41.95;;
54935;SDS011;40838;50.676;7.838;2024-02-28T01:18:32;215.90;;;42.33;;
54935;SDS011;40838;50.676;7.838;2024-02-28T01:20:59;697.42;;;71.00;;
54935;SDS011;40838;50.676;7.838;2024-02-28T01:23:26;467.25;;;55.60;;
54935;SDS011;40838;50.676;7.838;2024-02-28T01:25:54;228.75;;;40.83;;
54935;SDS011;40838;50.676;7.838;2024-02-28T01:28:21;172.32;;;39.22;;
54935;SDS011;40838;50.676;7.838;2024-02-28T01:30:48;199.18;;;42.38;;
54935;SDS011;40838;50.676;7.838;2024-02-28T01:33:15;213.60;;;42.28;;
54935;SDS011;40838;50.676;7.838;2024-02-28T01:35:42;174.25;;;39.00;;
54935;SDS011;40838;50.676;7.838;2024-02-28T01:38:09;234.77;;;41.75;;
54935;SDS011;40838;50.676;7.838;2024-02-28T01:40:36;177.82;;;39.40;;
54935;SDS011;40838;50.676;7.838;2024-02-28T01:43:06;282.30;;;44.95;;
54935;SDS011;40838;50.676;7.838;2024-02-28T01:45:34;205.02;;;41.40;;
54935;SDS011;40838;50.676;7.838;2024-02-28T01:48:01;188.05;;;39.22;;
54935;SDS011;40838;50.676;7.838;2024-02-28T01:50:30;212.77;;;37.28;;
54935;SDS011;40838;50.676;7.838;2024-02-28T01:52:57;325.73;;;46.42;;
54935;SDS011;40838;50.676;7.838;2024-02-28T01:55:25;161.88;;;37.30;;
54935;SDS011;40838;50.676;7.838;2024-02-28T01:57:52;199.85;;;39.08;;
54935;SDS011;40838;50.676;7.838;2024-02-28T02:00:21;291.77;;;43.28;;
54935;SDS011;40838;50.676;7.838;2024-02-28T02:02:49;269.52;;;42.70;;
54935;SDS011;40838;50.676;7.838;2024-02-28T02:05:16;245.95;;;44.20;;
54935;SDS011;40838;50.676;7.838;2024-02-28T02:07:46;296.20;;;47.58;;
54935;SDS011;40838;50.676;7.838;2024-02-28T02:10:14;279.30;;;47.63;;
54935;SDS011;40838;50.676;7.838;2024-02-28T02:12:41;274.48;;;46.22;;
54935;SDS011;40838;50.676;7.838;2024-02-28T02:15:08;181.02;;;36.88;;
54935;SDS011;40838;50.676;7.838;2024-02-28T02:17:37;600.72;;;63.15;;
54935;SDS011;40838;50.676;7.838;2024-02-28T02:20:04;376.33;;;49.83;;
54935;SDS011;40838;50.676;7.838;2024-02-28T02:22:35;524.38;;;59.38;;
54935;SDS011;40838;50.676;7.838;2024-02-28T02:25:03;362.92;;;47.83;;
54935;SDS011;40838;50.676;7.838;2024-02-28T02:27:31;207.57;;;41.42;;
54935;SDS011;40838;50.676;7.838;2024-02-28T02:29:58;225.40;;;41.47;;
54935;SDS011;40838;50.676;7.838;2024-02-28T02:32:25;160.45;;;39.92;;
54935;SDS011;40838;50.676;7.838;2024-02-28T02:34:52;199.25;;;38.20;;
54935;SDS011;40838;50.676;7.838;2024-02-28T02:37:19;184.63;;;39.42;;
54935;SDS011;40838;50.676;7.838;2024-02-28T02:39:47;338.55;;;47.72;;
54935;SDS011;40838;50.676;7.838;2024-02-28T02:42:14;246.48;;;40.90;;
54935;SDS011;40838;50.676;7.838;2024-02-28T02:44:42;626.38;;;64.15;;
54935;SDS011;40838;50.676;7.838;2024-02-28T02:47:12;492.58;;;56.65;;
54935;SDS011;40838;50.676;7.838;2024-02-28T02:49:39;432.58;;;49.42;;
54935;SDS011;40838;50.676;7.838;2024-02-28T02:52:06;435.73;;;52.53;;
54935;SDS011;40838;50.676;7.838;2024-02-28T02:54:33;542.00;;;63.30;;
54935;SDS011;40838;50.676;7.838;2024-02-28T02:57:02;297.73;;;43.80;;
54935;SDS011;40838;50.676;7.838;2024-02-28T02:59:29;282.60;;;43.15;;
54935;SDS011;40838;50.676;7.838;2024-02-28T03:01:56;222.07;;;42.75;;
54935;SDS011;40838;50.676;7.838;2024-02-28T03:04:23;507.15;;;59.45;;
54935;SDS011;40838;50.676;7.838;2024-02-28T03:06:50;464.48;;;58.00;;
54935;SDS011;40838;50.676;7.838;2024-02-28T03:09:17;657.53;;;67.60;;
54935;SDS011;40838;50.676;7.838;2024-02-28T03:11:44;801.63;;;80.28;;
54935;SDS011;40838;50.676;7.838;2024-02-28T03:14:13;538.95;;;61.75;;
54935;SDS011;40838;50.676;7.838;2024-02-28T03:16:40;333.25;;;46.75;;
54935;SDS011;40838;50.676;7.838;2024-02-28T03:19:08;465.30;;;54.85;;
54935;SDS011;40838;50.676;7.838;2024-02-28T03:21:36;484.08;;;58.17;;
54935;SDS011;40838;50.676;7.838;2024-02-28T03:24:03;571.67;;;64.47;;
54935;SDS011;40838;50.676;7.838;2024-02-28T03:26:30;382.02;;;51.28;;
54935;SDS011;40838;50.676;7.838;2024-02-28T03:28:58;471.65;;;56.90;;
54935;SDS011;40838;50.676;7.838;2024-02-28T03:31:26;673.38;;;65.90;;
54935;SDS011;40838;50.676;7.838;2024-02-28T03:33:54;485.40;;;58.55;;
54935;SDS011;40838;50.676;7.838;2024-02-28T03:36:21;285.90;;;48.25;;
54935;SDS011;40838;50.676;7.838;2024-02-28T03:38:48;517.40;;;62.08;;
54935;SDS011;40838;50.676;7.838;2024-02-28T03:41:15;462.80;;;62.60;;
54935;SDS011;40838;50.676;7.838;2024-02-28T03:43:44;223.80;;;43.42;;
54935;SDS011;40838;50.676;7.838;2024-02-28T03:46:11;309.80;;;47.55;;
54935;SDS011;40838;50.676;7.838;2024-02-28T03:48:39;162.02;;;41.85;;
54935;SDS011;40838;50.676;7.838;2024-02-28T03:51:06;204.52;;;42.72;;
54935;SDS011;40838;50.676;7.838;2024-02-28T03:53:33;277.25;;;45.92;;
54935;SDS011;40838;50.676;7.838;2024-02-28T03:56:00;424.95;;;54.85;;
54935;SDS011;40838;50.676;7.838;2024-02-28T03:58:28;490.98;;;59.88;;
54935;SDS011;40838;50.676;7.838;2024-02-28T04:00:55;186.80;;;40.83;;
54935;SDS011;40838;50.676;7.838;2024-02-28T04:03:22;221.60;;;44.10;;
54935;SDS011;40838;50.676;7.838;2024-02-28T04:05:51;247.45;;;45.53;;
54935;SDS011;40838;50.676;7.838;2024-02-28T04:08:18;173.10;;;40.60;;
54935;SDS011;40838;50.676;7.838;2024-02-28T04:10:45;188.95;;;42.20;;
54935;SDS011;40838;50.676;7.838;2024-02-28T04:13:16;237.77;;;43.20;;
54935;SDS011;40838;50.676;7.838;2024-02-28T04:15:43;150.70;;;37.78;;
54935;SDS011;40838;50.676;7.838;2024-02-28T04:18:12;205.88;;;42.05;;
54935;SDS011;40838;50.676;7.838;2024-02-28T04:20:39;197.07;;;41.15;;
54935;SDS011;40838;50.676;7.838;2024-02-28T04:23:07;258.20;;;42.35;;
54935;SDS011;40838;50.676;7.838;2024-02-28T04:25:34;167.93;;;38.58;;
54935;SDS011;40838;50.676;7.838;2024-02-28T04:28:01;322.40;;;44.30;;
54935;SDS011;40838;50.676;7.838;2024-02-28T04:30:28;311.90;;;46.95;;
54935;SDS011;40838;50.676;7.838;2024-02-28T04:32:56;293.95;;;43.42;;
54935;SDS011;40838;50.676;7.838;2024-02-28T04:35:23;239.13;;;39.67;;
54935;SDS011;40838;50.676;7.838;2024-02-28T04:37:50;240.60;;;42.25;;
54935;SDS011;40838;50.676;7.838;2024-02-28T04:40:19;379.33;;;49.95;;
54935;SDS011;40838;50.676;7.838;2024-02-28T04:42:46;142.77;;;36.58;;
54935;SDS011;40838;50.676;7.838;2024-02-28T04:45:13;155.57;;;38.63;;
54935;SDS011;40838;50.676;7.838;2024-02-28T04:47:40;253.13;;;43.40;;
54935;SDS011;40838;50.676;7.838;2024-02-28T04:50:08;129.95;;;36.70;;
54935;SDS011;40838;50.676;7.838;2024-02-28T04:52:36;147.55;;;36.90;;
54935;SDS011;40838;50.676;7.838;2024-02-28T04:55:03;129.80;;;34.33;;
54935;SDS011;40838;50.676;7.838;2024-02-28T04:57:33;121.85;;;36.85;;
54935;SDS011;40838;50.676;7.838;2024-02-28T05:00:00;141.48;;;35.40;;
54935;SDS011;40838;50.676;7.838;2024-02-28T05:02:28;126.35;;;34.58;;
54935;SDS011;40838;50.676;7.838;2024-02-28T05:04:56;143.02;;;35.03;;
54935;SDS011;40838;50.676;7.838;2024-02-28T05:07:23;152.38;;;34.95;;
54935;SDS011;40838;50.676;7.838;2024-02-28T05:09:50;113.43;;;34.55;;
54935;SDS011;40838;50.676;7.838;2024-02-28T05:12:17;107.50;;;32.42;;
54935;SDS011;40838;50.676;7.838;2024-02-28T05:14:46;108.82;;;33.55;;
54935;SDS011;40838;50.676;7.838;2024-02-28T05:17:13;137.68;;;33.95;;
54935;SDS011;40838;50.676;7.838;2024-02-28T05:19:40;113.45;;;33.15;;
54935;SDS011;40838;50.676;7.838;2024-02-28T05:22:07;118.35;;;34.78;;
54935;SDS011;40838;50.676;7.838;2024-02-28T05:24:36;120.07;;;32.75;;
54935;SDS011;40838;50.676;7.838;2024-02-28T05:27:03;115.25;;;33.13;;
54935;SDS011;40838;50.676;7.838;2024-02-28T05:29:30;119.43;;;34.95;;
54935;SDS011;40838;50.676;7.838;2024-02-28T05:31:59;107.47;;;31.75;;
54935;SDS011;40838;50.676;7.838;2024-02-28T05:34:26;108.72;;;31.13;;
54935;SDS011;40838;50.676;7.838;2024-02-28T05:36:53;122.75;;;30.27;;
54935;SDS011;40838;50.676;7.838;2024-02-28T05:39:21;134.20;;;32.88;;
54935;SDS011;40838;50.676;7.838;2024-02-28T05:41:48;90.43;;;30.75;;
54935;SDS011;40838;50.676;7.838;2024-02-28T05:44:15;102.65;;;31.15;;
54935;SDS011;40838;50.676;7.838;2024-02-28T05:46:42;105.63;;;33.17;;
54935;SDS011;40838;50.676;7.838;2024-02-28T05:49:11;130.82;;;33.20;;
54935;SDS011;40838;50.676;7.838;2024-02-28T05:51:38;115.93;;;33.90;;
54935;SDS011;40838;50.676;7.838;2024-02-28T05:54:05;101.72;;;32.40;;
54935;SDS011;40838;50.676;7.838;2024-02-28T05:56:32;93.72;;;29.65;;
54935;SDS011;40838;50.676;7.838;2024-02-28T05:58:59;108.38;;;31.80;;
54935;SDS011;40838;50.676;7.838;2024-02-28T06:01:26;97.97;;;28.95;;
54935;SDS011;40838;50.676;7.838;2024-02-28T06:03:53;122.32;;;31.40;;
54935;SDS011;40838;50.676;7.838;2024-02-28T06:06:22;103.40;;;28.52;;
54935;SDS011;40838;50.676;7.838;2024-02-28T06:08:49;125.13;;;28.75;;
54935;SDS011;40838;50.676;7.838;2024-02-28T06:11:15;117.97;;;30.55;;
54935;SDS011;40838;50.676;7.838;2024-02-28T06:13:42;115.93;;;30.60;;
54935;SDS011;40838;50.676;7.838;2024-02-28T06:16:13;98.47;;;28.08;;
54935;SDS011;40838;50.676;7.838;2024-02-28T06:18:41;135.70;;;28.60;;
54935;SDS011;40838;50.676;7.838;2024-02-28T06:21:08;137.65;;;29.92;;
54935;SDS011;40838;50.676;7.838;2024-02-28T06:23:36;134.05;;;33.65;;
54935;SDS011;40838;50.676;7.838;2024-02-28T06:26:06;126.38;;;28.38;;
54935;SDS011;40838;50.676;7.838;2024-02-28T06:28:40;113.50;;;28.77;;
54935;SDS011;40838;50.676;7.838;2024-02-28T06:31:11;142.63;;;27.67;;
54935;SDS011;40838;50.676;7.838;2024-02-28T06:33:39;95.28;;;27.38;;
54935;SDS011;40838;50.676;7.838;2024-02-28T06:36:06;113.15;;;27.85;;
54935;SDS011;40838;50.676;7.838;2024-02-28T06:38:33;126.90;;;29.90;;
54935;SDS011;40838;50.676;7.838;2024-02-28T06:41:03;241.18;;;32.95;;
54935;SDS011;40838;50.676;7.838;2024-02-28T06:43:32;133.50;;;27.67;;
54935;SDS011;40838;50.676;7.838;2024-02-28T06:45:59;267.35;;;37.28;;
54935;SDS011;40838;50.676;7.838;2024-02-28T06:48:27;141.70;;;27.63;;
54935;SDS011;40838;50.676;7.838;2024-02-28T06:50:54;113.25;;;27.48;;
54935;SDS011;40838;50.676;7.838;2024-02-28T06:53:21;281.35;;;35.65;;
54935;SDS011;40838;50.676;7.838;2024-02-28T06:55:48;174.73;;;31.50;;
54935;SDS011;40838;50.676;7.838;2024-02-28T06:58:17;403.15;;;44.15;;
54935;SDS011;40838;50.676;7.838;2024-02-28T07:00:44;139.60;;;31.60;;
54935;SDS011;40838;50.676;7.838;2024-02-28T07:03:11;156.65;;;31.17;;
54935;SDS011;40838;50.676;7.838;2024-02-28T07:05:38;144.60;;;29.67;;
54935;SDS011;40838;50.676;7.838;2024-02-28T07:08:08;111.55;;;28.88;;
54935;SDS011;40838;50.676;7.838;2024-02-28T07:10:36;143.52;;;29.50;;
54935;SDS011;40838;50.676;7.838;2024-02-28T07:13:08;106.05;;;28.88;;
54935;SDS011;40838;50.676;7.838;2024-02-28T07:15:37;99.72;;;28.25;;
54935;SDS011;40838;50.676;7.838;2024-02-28T07:18:05;100.95;;;30.23;;
54935;SDS011;40838;50.676;7.838;2024-02-28T07:20:35;89.50;;;27.25;;
54935;SDS011;40838;50.676;7.838;2024-02-28T07:23:02;97.43;;;28.50;;
54935;SDS011;40838;50.676;7.838;2024-02-28T07:25:30;103.90;;;27.63;;
54935;SDS011;40838;50.676;7.838;2024-02-28T07:27:57;174.63;;;31.15;;
54935;SDS011;40838;50.676;7.838;2024-02-28T07:30:25;224.65;;;34.95;;
54935;SDS011;40838;50.676;7.838;2024-02-28T07:32:54;164.82;;;30.58;;
54935;SDS011;40838;50.676;7.838;2024-02-28T07:35:21;104.90;;;27.65;;
54935;SDS011;40838;50.676;7.838;2024-02-28T07:37:49;127.07;;;30.08;;
54935;SDS011;40838;50.676;7.838;2024-02-28T07:40:16;103.85;;;26.90;;
54935;SDS011;40838;50.676;7.838;2024-02-28T07:42:43;99.38;;;27.77;;
54935;SDS011;40838;50.676;7.838;2024-02-28T07:45:10;143.07;;;31.33;;
54935;SDS011;40838;50.676;7.838;2024-02-28T07:47:38;92.93;;;29.10;;
54935;SDS011;40838;50.676;7.838;2024-02-28T07:50:07;91.93;;;26.42;;
54935;SDS011;40838;50.676;7.838;2024-02-28T07:52:34;104.88;;;29.75;;
54935;SDS011;40838;50.676;7.838;2024-02-28T07:55:02;85.57;;;25.67;;
54935;SDS011;40838;50.676;7.838;2024-02-28T07:57:31;80.88;;;25.08;;
54935;SDS011;40838;50.676;7.838;2024-02-28T07:59:58;84.13;;;24.98;;
54935;SDS011;40838;50.676;7.838;2024-02-28T08:02:25;79.53;;;25.30;;
54935;SDS011;40838;50.676;7.838;2024-02-28T08:04:53;79.10;;;24.15;;
54935;SDS011;40838;50.676;7.838;2024-02-28T08:07:21;83.70;;;26.08;;
54935;SDS011;40838;50.676;7.838;2024-02-28T08:09:49;77.13;;;23.50;;
54935;SDS011;40838;50.676;7.838;2024-02-28T08:12:16;63.80;;;24.33;;
54935;SDS011;40838;50.676;7.838;2024-02-28T08:14:43;69.65;;;24.55;;
54935;SDS011;40838;50.676;7.838;2024-02-28T08:17:11;74.43;;;23.75;;
54935;SDS011;40838;50.676;7.838;2024-02-28T08:19:40;75.82;;;21.42;;
54935;SDS011;40838;50.676;7.838;2024-02-28T08:22:08;87.97;;;26.52;;
54935;SDS011;40838;50.676;7.838;2024-02-28T08:24:37;74.53;;;24.38;;
54935;SDS011;40838;50.676;7.838;2024-02-28T08:27:05;86.88;;;27.38;;
54935;SDS011;40838;50.676;7.838;2024-02-28T08:29:32;69.65;;;23.55;;
54935;SDS011;40838;50.676;7.838;2024-02-28T08:32:00;69.28;;;22.13;;
54935;SDS011;40838;50.676;7.838;2024-02-28T08:34:28;63.97;;;21.75;;
54935;SDS011;40838;50.676;7.838;2024-02-28T08:36:55;57.15;;;20.80;;
54935;SDS011;40838;50.676;7.838;2024-02-28T08:39:22;49.70;;;19.70;;
54935;SDS011;40838;50.676;7.838;2024-02-28T08:41:51;51.35;;;19.10;;
54935;SDS011;40838;50.676;7.838;2024-02-28T08:44:18;57.35;;;19.80;;
54935;SDS011;40838;50.676;7.838;2024-02-28T08:46:46;52.55;;;19.20;;
54935;SDS011;40838;50.676;7.838;2024-02-28T08:49:13;51.40;;;18.33;;
54935;SDS011;40838;50.676;7.838;2024-02-28T08:51:40;52.40;;;19.58;;
54935;SDS011;40838;50.676;7.838;2024-02-28T08:54:07;58.78;;;21.27;;
54935;SDS011;40838;50.676;7.838;2024-02-28T08:56:34;52.85;;;19.73;;
54935;SDS011;40838;50.676;7.838;2024-02-28T08:59:03;55.28;;;21.15;;
54935;SDS011;40838;50.676;7.838;2024-02-28T09:01:30;48.78;;;19.25;;
54935;SDS011;40838;50.676;7.838;2024-02-28T09:03:59;46.28;;;17.88;;
54935;SDS011;40838;50.676;7.838;2024-02-28T09:06:26;50.70;;;19.15;;
54935;SDS011;40838;50.676;7.838;2024-02-28T09:08:53;45.33;;;18.23;;
54935;SDS011;40838;50.676;7.838;2024-02-28T09:11:20;47.58;;;18.65;;
54935;SDS011;40838;50.676;7.838;2024-02-28T09:13:47;42.45;;;17.52;;
54935;SDS011;40838;50.676;7.838;2024-02-28T09:16:16;43.28;;;16.85;;
54935;SDS011;40838;50.676;7.838;2024-02-28T09:18:43;38.40;;;15.07;;
54935;SDS011;40838;50.676;7.838;2024-02-28T09:21:10;37.88;;;15.95;;
54935;SDS011;40838;50.676;7.838;2024-02-28T09:23:36;44.75;;;16.63;;
54935;SDS011;40838;50.676;7.838;2024-02-28T09:26:03;38.47;;;15.98;;
54935;SDS011;40838;50.676;7.838;2024-02-28T09:28:31;39.92;;;16.27;;
54935;SDS011;40838;50.676;7.838;2024-02-28T09:30:58;42.38;;;16.55;;
54935;SDS011;40838;50.676;7.838;2024-02-28T09:33:26;45.22;;;17.90;;
54935;SDS011;40838;50.676;7.838;2024-02-28T09:35:53;40.78;;;16.17;;
54935;SDS011;40838;50.676;7.838;2024-02-28T09:38:20;47.75;;;19.33;;
54935;SDS011;40838;50.676;7.838;2024-02-28T09:40:47;48.10;;;18.63;;
54935;SDS011;40838;50.676;7.838;2024-02-28T09:43:15;45.83;;;17.83;;
54935;SDS011;40838;50.676;7.838;2024-02-28T09:45:50;45.13;;;20.10;;
54935;SDS011;40838;50.676;7.838;2024-02-28T09:48:18;57.50;;;21.40;;
54935;SDS011;40838;50.676;7.838;2024-02-28T09:50:47;59.50;;;19.95;;
54935;SDS011;40838;50.676;7.838;2024-02-28T09:53:17;53.80;;;20.23;;
54935;SDS011;40838;50.676;7.838;2024-02-28T09:55:43;73.13;;;24.85;;
54935;SDS011;40838;50.676;7.838;2024-02-28T09:58:10;58.13;;;21.38;;
54935;SDS011;40838;50.676;7.838;2024-02-28T10:00:40;60.33;;;23.35;;
54935;SDS011;40838;50.676;7.838;2024-02-28T10:03:09;58.00;;;20.90;;
54935;SDS011;40838;50.676;7.838;2024-02-28T10:05:38;57.35;;;21.65;;
54935;SDS011;40838;50.676;7.838;2024-02-28T10:08:07;63.35;;;23.83;;
54935;SDS011;40838;50.676;7.838;2024-02-28T10:10:36;53.17;;;21.23;;
54935;SDS011;40838;50.676;7.838;2024-02-28T10:13:03;56.55;;;21.92;;
54935;SDS011;40838;50.676;7.838;2024-02-28T10:15:30;53.95;;;21.15;;
54935;SDS011;40838;50.676;7.838;2024-02-28T10:17:57;45.47;;;18.70;;
54935;SDS011;40838;50.676;7.838;2024-02-28T10:20:24;56.97;;;24.42;;
54935;SDS011;40838;50.676;7.838;2024-02-28T10:22:52;56.08;;;21.30;;
54935;SDS011;40838;50.676;7.838;2024-02-28T10:25:23;54.08;;;19.35;;
54935;SDS011;40838;50.676;7.838;2024-02-28T10:27:51;62.33;;;24.45;;
54935;SDS011;40838;50.676;7.838;2024-02-28T10:30:18;53.28;;;20.17;;
54935;SDS011;40838;50.676;7.838;2024-02-28T10:32:48;45.28;;;18.15;;
54935;SDS011;40838;50.676;7.838;2024-02-28T10:35:15;54.50;;;20.35;;
54935;SDS011;40838;50.676;7.838;2024-02-28T10:37:45;50.40;;;20.08;;
54935;SDS011;40838;50.676;7.838;2024-02-28T10:40:13;47.28;;;18.55;;
54935;SDS011;40838;50.676;7.838;2024-02-28T10:42:42;47.47;;;19.08;;
54935;SDS011;40838;50.676;7.838;2024-02-28T10:45:09;41.30;;;17.48;;
54935;SDS011;40838;50.676;7.838;2024-02-28T10:47:38;44.50;;;19.17;;
54935;SDS011;40838;50.676;7.838;2024-02-28T10:50:05;42.58;;;16.92;;
54935;SDS011;40838;50.676;7.838;2024-02-28T10:52:33;44.35;;;19.25;;
54935;SDS011;40838;50.676;7.838;2024-02-28T10:55:05;37.15;;;16.98;;
54935;SDS011;40838;50.676;7.838;2024-02-28T10:57:35;34.50;;;15.77;;
54935;SDS011;40838;50.676;7.838;2024-02-28T11:00:05;35.55;;;16.45;;
54935;SDS011;40838;50.676;7.838;2024-02-28T11:02:33;41.78;;;18.55;;
54935;SDS011;40838;50.676;7.838;2024-02-28T11:05:01;41.97;;;18.55;;
54935;SDS011;40838;50.676;7.838;2024-02-28T11:07:30;41.13;;;18.85;;
54935;SDS011;40838;50.676;7.838;2024-02-28T11:09:57;42.97;;;19.58;;
54935;SDS011;40838;50.676;7.838;2024-02-28T11:12:25;45.72;;;18.42;;
54935;SDS011;40838;50.676;7.838;2024-02-28T11:14:57;42.08;;;17.55;;
54935;SDS011;40838;50.676;7.838;2024-02-28T11:17:29;38.08;;;16.58;;
54935;SDS011;40838;50.676;7.838;2024-02-28T11:19:56;41.28;;;16.08;;
54935;SDS011;40838;50.676;7.838;2024-02-28T11:22:23;40.25;;;17.65;;
54935;SDS011;40838;50.676;7.838;2024-02-28T11:24:54;43.63;;;17.52;;
54935;SDS011;40838;50.676;7.838;2024-02-28T11:27:21;47.42;;;18.58;;
54935;SDS011;40838;50.676;7.838;2024-02-28T11:29:49;41.63;;;18.42;;
54935;SDS011;40838;50.676;7.838;2024-02-28T11:32:15;42.25;;;17.83;;
54935;SDS011;40838;50.676;7.838;2024-02-28T11:34:44;43.30;;;18.40;;
54935;SDS011;40838;50.676;7.838;2024-02-28T11:37:12;43.25;;;18.27;;
54935;SDS011;40838;50.676;7.838;2024-02-28T11:39:39;38.90;;;17.67;;
54935;SDS011;40838;50.676;7.838;2024-02-28T11:42:10;33.30;;;15.65;;
54935;SDS011;40838;50.676;7.838;2024-02-28T11:44:39;40.47;;;18.05;;
54935;SDS011;40838;50.676;7.838;2024-02-28T11:47:08;38.60;;;17.63;;
54935;SDS011;40838;50.676;7.838;2024-02-28T11:49:36;31.38;;;15.05;;
54935;SDS011;40838;50.676;7.838;2024-02-28T11:52:05;32.80;;;15.27;;
54935;SDS011;40838;50.676;7.838;2024-02-28T11:54:32;32.58;;;15.55;;
54935;SDS011;40838;50.676;7.838;2024-02-28T11:56:59;35.45;;;18.23;;
54935;SDS011;40838;50.676;7.838;2024-02-28T11:59:26;32.33;;;15.77;;
54935;SDS011;40838;50.676;7.838;2024-02-28T12:01:53;35.83;;;15.93;;
54935;SDS011;40838;50.676;7.838;2024-02-28T12:04:20;29.60;;;14.82;;
54935;SDS011;40838;50.676;7.838;2024-02-28T12:06:50;29.73;;;15.60;;
54935;SDS011;40838;50.676;7.838;2024-02-28T12:09:19;29.92;;;15.50;;
54935;SDS011;40838;50.676;7.838;2024-02-28T12:11:46;34.67;;;15.50;;
54935;SDS011;40838;50.676;7.838;2024-02-28T12:14:13;31.83;;;15.20;;
54935;SDS011;40838;50.676;7.838;2024-02-28T12:16:40;29.58;;;13.75;;
54935;SDS011;40838;50.676;7.838;2024-02-28T12:19:08;34.75;;;16.85;;
54935;SDS011;40838;50.676;7.838;2024-02-28T12:21:36;25.08;;;12.77;;
54935;SDS011;40838;50.676;7.838;2024-02-28T12:24:04;30.15;;;13.07;;
54935;SDS011;40838;50.676;7.838;2024-02-28T12:26:33;33.42;;;15.35;;
54935;SDS011;40838;50.676;7.838;2024-02-28T12:29:00;32.00;;;14.13;;
54935;SDS011;40838;50.676;7.838;2024-02-28T12:31:27;24.23;;;12.52;;
54935;SDS011;40838;50.676;7.838;2024-02-28T12:33:54;27.38;;;13.18;;
54935;SDS011;40838;50.676;7.838;2024-02-28T12:36:22;30.98;;;15.45;;
54935;SDS011;40838;50.676;7.838;2024-02-28T12:38:50;27.45;;;12.93;;
54935;SDS011;40838;50.676;7.838;2024-02-28T12:41:17;23.92;;;12.35;;
54935;SDS011;40838;50.676;7.838;2024-02-28T12:43:45;33.72;;;14.95;;
54935;SDS011;40838;50.676;7.838;2024-02-28T12:46:12;31.50;;;14.18;;
54935;SDS011;40838;50.676;7.838;2024-02-28T12:48:40;29.88;;;14.15;;
54935;SDS011;40838;50.676;7.838;2024-02-28T12:51:08;33.65;;;14.38;;
54935;SDS011;40838;50.676;7.838;2024-02-28T12:53:37;31.05;;;15.60;;
54935;SDS011;40838;50.676;7.838;2024-02-28T12:56:04;31.75;;;15.35;;
54935;SDS011;40838;50.676;7.838;2024-02-28T12:58:31;28.95;;;14.43;;
54935;SDS011;40838;50.676;7.838;2024-02-28T13:01:00;28.63;;;14.98;;
54935;SDS011;40838;50.676;7.838;2024-02-28T13:03:27;27.77;;;14.70;;
54935;SDS011;40838;50.676;7.838;2024-02-28T13:05:54;29.67;;;14.90;;
54935;SDS011;40838;50.676;7.838;2024-02-28T13:08:21;28.63;;;14.40;;
54935;SDS011;40838;50.676;7.838;2024-02-28T13:10:49;29.10;;;14.05;;
54935;SDS011;40838;50.676;7.838;2024-02-28T13:13:16;26.65;;;13.05;;
54935;SDS011;40838;50.676;7.838;2024-02-28T13:15:43;31.30;;;13.70;;
54935;SDS011;40838;50.676;7.838;2024-02-28T13:18:13;31.00;;;14.57;;
54935;SDS011;40838;50.676;7.838;2024-02-28T13:20:39;30.65;;;15.70;;
54935;SDS011;40838;50.676;7.838;2024-02-28T13:23:06;30.60;;;14.20;;
54935;SDS011;40838;50.676;7.838;2024-02-28T13:25:33;27.88;;;14.15;;
54935;SDS011;40838;50.676;7.838;2024-02-28T13:28:00;29.30;;;15.57;;
54935;SDS011;40838;50.676;7.838;2024-02-28T13:30:27;28.88;;;14.65;;
54935;SDS011;40838;50.676;7.838;2024-02-28T13:32:54;28.35;;;14.18;;
54935;SDS011;40838;50.676;7.838;2024-02-28T13:35:23;26.10;;;14.60;;
54935;SDS011;40838;50.676;7.838;2024-02-28T13:37:50;25.05;;;13.40;;
54935;SDS011;40838;50.676;7.838;2024-02-28T13:40:18;26.10;;;13.85;;
54935;SDS011;40838;50.676;7.838;2024-02-28T13:42:45;24.58;;;13.20;;
54935;SDS011;40838;50.676;7.838;2024-02-28T13:45:12;26.67;;;13.18;;
54935;SDS011;40838;50.676;7.838;2024-02-28T13:47:39;24.02;;;13.80;;
54935;SDS011;40838;50.676;7.838;2024-02-28T13:50:06;27.90;;;14.45;;
54935;SDS011;40838;50.676;7.838;2024-02-28T13:52:36;30.25;;;14.48;;
54935;SDS011;40838;50.676;7.838;2024-02-28T13:55:03;25.88;;;13.15;;
54935;SDS011;40838;50.676;7.838;2024-02-28T13:57:31;25.73;;;13.45;;
54935;SDS011;40838;50.676;7.838;2024-02-28T13:59:58;27.70;;;13.48;;
54935;SDS011;40838;50.676;7.838;2024-02-28T14:02:25;25.80;;;13.30;;
54935;SDS011;40838;50.676;7.838;2024-02-28T14:04:52;26.33;;;12.70;;
54935;SDS011;40838;50.676;7.838;2024-02-28T14:07:19;24.02;;;12.27;;
54935;SDS011;40838;50.676;7.838;2024-02-28T14:09:47;24.50;;;12.63;;
54935;SDS011;40838;50.676;7.838;2024-02-28T14:12:14;25.95;;;13.88;;
54935;SDS011;40838;50.676;7.838;2024-02-28T14:14:42;23.30;;;13.05;;
54935;SDS011;40838;50.676;7.838;2024-02-28T14:17:09;22.27;;;11.68;;
54935;SDS011;40838;50.676;7.838;2024-02-28T14:19:36;20.60;;;10.57;;